sensor_id;sensor_type;location;lat;lon;timestamp;P1;durP1;ratioP1;P2;durP2;ratioP2
9034;SDS011;4552;43.422;24.592;2023-01-15T00:15:46;12.27;;;8.03;;
9034;SDS011;4552;43.422;24.592;2023-01-15T00:45:08;12.53;;;7.30;;
9034;SDS011;4552;43.422;24.592;2023-01-15T00:47:40;11.23;;;6.63;;
9034;SDS011;4552;43.422;24.592;2023-01-15T00:50:22;7.57;;;5.83;;
9034;SDS011;4552;43.422;24.592;2023-01-15T00:53:08;10.03;;;6.07;;
9034;SDS011;4552;43.422;24.592;2023-01-15T01:05:05;11.03;;;6.80;;
9034;SDS011;4552;43.422;24.592;2023-01-15T01:08:17;10.30;;;6.03;;
9034;SDS011;4552;43.422;24.592;2023-01-15T01:11:19;11.20;;;6.57;;
9034;SDS011;4552;43.422;24.592;2023-01-15T01:13:53;12.37;;;7.83;;
9034;SDS011;4552;43.422;24.592;2023-01-15T01:16:47;11.80;;;6.83;;
9034;SDS011;4552;43.422;24.592;2023-01-15T01:19:20;12.20;;;7.10;;
9034;SDS011;4552;43.422;24.592;2023-01-15T01:25:10;10.37;;;6.43;;
9034;SDS011;4552;43.422;24.592;2023-01-15T01:27:52;11.00;;;6.07;;
9034;SDS011;4552;43.422;24.592;2023-01-15T01:30:48;8.77;;;5.93;;
9034;SDS011;4552;43.422;24.592;2023-01-15T01:33:32;10.17;;;6.33;;
9034;SDS011;4552;43.422;24.592;2023-01-15T01:36:32;8.37;;;5.50;;
9034;SDS011;4552;43.422;24.592;2023-01-15T01:39:07;8.23;;;5.07;;
9034;SDS011;4552;43.422;24.592;2023-01-15T02:46:47;9.43;;;6.10;;
9034;SDS011;4552;43.422;24.592;2023-01-15T02:59:53;9.10;;;6.33;;
9034;SDS011;4552;43.422;24.592;2023-01-15T03:02:32;10.63;;;6.00;;
9034;SDS011;4552;43.422;24.592;2023-01-15T03:05:07;9.53;;;5.97;;
9034;SDS011;4552;43.422;24.592;2023-01-15T03:08:16;8.37;;;5.57;;
9034;SDS011;4552;43.422;24.592;2023-01-15T04:18:28;8.13;;;4.93;;
9034;SDS011;4552;43.422;24.592;2023-01-15T04:21:10;7.87;;;5.40;;
9034;SDS011;4552;43.422;24.592;2023-01-15T04:23:53;8.93;;;6.10;;
9034;SDS011;4552;43.422;24.592;2023-01-15T04:26:34;6.60;;;5.00;;
9034;SDS011;4552;43.422;24.592;2023-01-15T04:29:18;9.03;;;5.40;;
9034;SDS011;4552;43.422;24.592;2023-01-15T04:31:56;8.30;;;5.20;;
9034;SDS011;4552;43.422;24.592;2023-01-15T04:37:47;8.67;;;5.60;;
9034;SDS011;4552;43.422;24.592;2023-01-15T04:46:31;8.17;;;5.13;;
9034;SDS011;4552;43.422;24.592;2023-01-15T04:49:25;8.70;;;5.33;;
9034;SDS011;4552;43.422;24.592;2023-01-15T04:52:08;8.23;;;5.23;;
9034;SDS011;4552;43.422;24.592;2023-01-15T06:08:17;13.63;;;8.23;;
9034;SDS011;4552;43.422;24.592;2023-01-15T06:10:50;14.83;;;9.83;;
9034;SDS011;4552;43.422;24.592;2023-01-15T06:13:36;17.07;;;10.10;;
9034;SDS011;4552;43.422;24.592;2023-01-15T06:16:16;14.23;;;8.67;;
9034;SDS011;4552;43.422;24.592;2023-01-15T06:18:49;14.43;;;8.87;;
9034;SDS011;4552;43.422;24.592;2023-01-15T06:32:15;13.80;;;7.60;;
9034;SDS011;4552;43.422;24.592;2023-01-15T06:35:25;10.87;;;7.07;;
9034;SDS011;4552;43.422;24.592;2023-01-15T06:41:43;10.17;;;7.10;;
9034;SDS011;4552;43.422;24.592;2023-01-15T06:44:43;12.57;;;7.50;;
9034;SDS011;4552;43.422;24.592;2023-01-15T06:47:30;10.17;;;6.17;;
9034;SDS011;4552;43.422;24.592;2023-01-15T06:50:12;10.83;;;6.77;;
9034;SDS011;4552;43.422;24.592;2023-01-15T06:52:58;10.63;;;6.73;;
9034;SDS011;4552;43.422;24.592;2023-01-15T07:10:13;8.23;;;5.70;;
9034;SDS011;4552;43.422;24.592;2023-01-15T07:12:49;9.77;;;5.30;;
9034;SDS011;4552;43.422;24.592;2023-01-15T07:15:43;12.87;;;5.43;;
9034;SDS011;4552;43.422;24.592;2023-01-15T07:42:08;13.30;;;8.23;;
9034;SDS011;4552;43.422;24.592;2023-01-15T07:44:53;15.80;;;9.73;;
9034;SDS011;4552;43.422;24.592;2023-01-15T07:47:38;17.03;;;10.10;;
9034;SDS011;4552;43.422;24.592;2023-01-15T07:50:23;17.53;;;11.13;;
9034;SDS011;4552;43.422;24.592;2023-01-15T07:53:10;21.67;;;11.67;;
9034;SDS011;4552;43.422;24.592;2023-01-15T07:55:53;25.77;;;13.60;;
9034;SDS011;4552;43.422;24.592;2023-01-15T07:58:28;25.03;;;12.87;;
9034;SDS011;4552;43.422;24.592;2023-01-15T08:01:05;20.67;;;12.13;;
9034;SDS011;4552;43.422;24.592;2023-01-15T08:03:39;24.07;;;13.37;;
9034;SDS011;4552;43.422;24.592;2023-01-15T08:06:53;20.70;;;12.13;;
9034;SDS011;4552;43.422;24.592;2023-01-15T08:09:38;17.67;;;11.27;;
9034;SDS011;4552;43.422;24.592;2023-01-15T08:12:13;17.93;;;10.37;;
9034;SDS011;4552;43.422;24.592;2023-01-15T08:15:21;17.07;;;9.67;;
9034;SDS011;4552;43.422;24.592;2023-01-15T08:17:54;15.50;;;8.90;;
9034;SDS011;4552;43.422;24.592;2023-01-15T08:20:30;13.13;;;8.60;;
9034;SDS011;4552;43.422;24.592;2023-01-15T08:22:59;15.17;;;9.33;;
9034;SDS011;4552;43.422;24.592;2023-01-15T08:25:45;16.00;;;9.40;;
9034;SDS011;4552;43.422;24.592;2023-01-15T08:28:19;13.07;;;8.50;;
9034;SDS011;4552;43.422;24.592;2023-01-15T08:34:24;12.90;;;8.10;;
9034;SDS011;4552;43.422;24.592;2023-01-15T08:36:52;13.00;;;8.03;;
9034;SDS011;4552;43.422;24.592;2023-01-15T08:39:24;14.77;;;8.40;;
9034;SDS011;4552;43.422;24.592;2023-01-15T08:41:52;12.93;;;8.80;;
9034;SDS011;4552;43.422;24.592;2023-01-15T08:44:25;13.00;;;7.97;;
9034;SDS011;4552;43.422;24.592;2023-01-15T08:47:01;12.27;;;8.17;;
9034;SDS011;4552;43.422;24.592;2023-01-15T08:49:35;14.07;;;8.03;;
9034;SDS011;4552;43.422;24.592;2023-01-15T08:52:04;11.73;;;7.57;;
9034;SDS011;4552;43.422;24.592;2023-01-15T08:54:31;12.70;;;8.30;;
9034;SDS011;4552;43.422;24.592;2023-01-15T08:57:01;10.50;;;6.77;;
9034;SDS011;4552;43.422;24.592;2023-01-15T08:59:31;11.87;;;7.40;;
9034;SDS011;4552;43.422;24.592;2023-01-15T09:02:09;10.00;;;6.60;;
9034;SDS011;4552;43.422;24.592;2023-01-15T09:18:49;10.47;;;6.57;;
9034;SDS011;4552;43.422;24.592;2023-01-15T09:21:19;11.73;;;7.33;;
9034;SDS011;4552;43.422;24.592;2023-01-15T09:23:46;8.23;;;6.37;;
9034;SDS011;4552;43.422;24.592;2023-01-15T09:26:24;12.93;;;7.13;;
9034;SDS011;4552;43.422;24.592;2023-01-15T09:28:56;10.77;;;6.50;;
9034;SDS011;4552;43.422;24.592;2023-01-15T09:31:27;10.00;;;6.60;;
9034;SDS011;4552;43.422;24.592;2023-01-15T09:33:57;10.13;;;6.67;;
9034;SDS011;4552;43.422;24.592;2023-01-15T09:36:26;10.57;;;6.87;;
9034;SDS011;4552;43.422;24.592;2023-01-15T09:38:56;11.30;;;7.27;;
9034;SDS011;4552;43.422;24.592;2023-01-15T09:41:25;9.40;;;6.63;;
9034;SDS011;4552;43.422;24.592;2023-01-15T09:44:19;11.20;;;7.40;;
9034;SDS011;4552;43.422;24.592;2023-01-15T09:47:09;12.27;;;7.03;;
9034;SDS011;4552;43.422;24.592;2023-01-15T09:49:55;11.30;;;6.50;;
9034;SDS011;4552;43.422;24.592;2023-01-15T09:52:35;14.23;;;7.90;;
9034;SDS011;4552;43.422;24.592;2023-01-15T09:55:17;11.50;;;7.07;;
9034;SDS011;4552;43.422;24.592;2023-01-15T09:57:57;12.53;;;7.67;;
9034;SDS011;4552;43.422;24.592;2023-01-15T10:00:32;11.93;;;7.70;;
9034;SDS011;4552;43.422;24.592;2023-01-15T10:03:06;12.77;;;8.23;;
9034;SDS011;4552;43.422;24.592;2023-01-15T10:05:57;10.87;;;7.60;;
9034;SDS011;4552;43.422;24.592;2023-01-15T10:08:43;11.60;;;7.57;;
9034;SDS011;4552;43.422;24.592;2023-01-15T10:11:27;11.07;;;7.23;;
9034;SDS011;4552;43.422;24.592;2023-01-15T10:14:35;9.57;;;6.97;;
9034;SDS011;4552;43.422;24.592;2023-01-15T10:17:16;9.83;;;6.83;;
9034;SDS011;4552;43.422;24.592;2023-01-15T10:19:47;11.70;;;7.50;;
9034;SDS011;4552;43.422;24.592;2023-01-15T10:22:28;11.10;;;7.37;;
9034;SDS011;4552;43.422;24.592;2023-01-15T10:32:53;11.63;;;8.40;;
9034;SDS011;4552;43.422;24.592;2023-01-15T10:35:26;14.40;;;8.43;;
9034;SDS011;4552;43.422;24.592;2023-01-15T10:41:20;13.77;;;7.83;;
9034;SDS011;4552;43.422;24.592;2023-01-15T10:44:02;12.13;;;7.97;;
9034;SDS011;4552;43.422;24.592;2023-01-15T10:46:40;13.43;;;8.90;;
9034;SDS011;4552;43.422;24.592;2023-01-15T10:49:16;12.60;;;8.47;;
9034;SDS011;4552;43.422;24.592;2023-01-15T10:51:54;13.50;;;8.40;;
9034;SDS011;4552;43.422;24.592;2023-01-15T10:54:32;10.73;;;7.67;;
9034;SDS011;4552;43.422;24.592;2023-01-15T10:57:06;11.67;;;7.73;;
9034;SDS011;4552;43.422;24.592;2023-01-15T10:59:39;10.80;;;7.33;;
9034;SDS011;4552;43.422;24.592;2023-01-15T11:02:23;17.37;;;8.80;;
9034;SDS011;4552;43.422;24.592;2023-01-15T11:04:57;13.43;;;8.33;;
9034;SDS011;4552;43.422;24.592;2023-01-15T11:07:26;14.87;;;9.30;;
9034;SDS011;4552;43.422;24.592;2023-01-15T11:12:50;14.77;;;8.77;;
9034;SDS011;4552;43.422;24.592;2023-01-15T11:15:38;11.80;;;7.83;;
9034;SDS011;4552;43.422;24.592;2023-01-15T11:18:30;11.50;;;7.87;;
9034;SDS011;4552;43.422;24.592;2023-01-15T11:21:38;12.93;;;7.63;;
9034;SDS011;4552;43.422;24.592;2023-01-15T11:24:12;11.73;;;7.43;;
9034;SDS011;4552;43.422;24.592;2023-01-15T11:26:58;10.83;;;6.63;;
9034;SDS011;4552;43.422;24.592;2023-01-15T11:29:34;11.90;;;6.90;;
9034;SDS011;4552;43.422;24.592;2023-01-15T11:32:18;10.13;;;7.37;;
9034;SDS011;4552;43.422;24.592;2023-01-15T11:34:57;11.77;;;6.80;;
9034;SDS011;4552;43.422;24.592;2023-01-15T11:37:26;10.87;;;6.43;;
9034;SDS011;4552;43.422;24.592;2023-01-15T11:39:59;12.30;;;6.70;;
9034;SDS011;4552;43.422;24.592;2023-01-15T11:42:35;8.93;;;5.80;;
9034;SDS011;4552;43.422;24.592;2023-01-15T11:45:29;9.33;;;6.47;;
9034;SDS011;4552;43.422;24.592;2023-01-15T11:48:14;13.50;;;6.33;;
9034;SDS011;4552;43.422;24.592;2023-01-15T11:51:05;9.77;;;6.33;;
9034;SDS011;4552;43.422;24.592;2023-01-15T11:53:49;13.03;;;7.10;;
9034;SDS011;4552;43.422;24.592;2023-01-15T11:56:21;10.27;;;6.30;;
9034;SDS011;4552;43.422;24.592;2023-01-15T19:51:34;11.43;;;7.20;;
9034;SDS011;4552;43.422;24.592;2023-01-15T19:54:20;9.43;;;5.87;;
9034;SDS011;4552;43.422;24.592;2023-01-15T19:57:08;8.80;;;6.17;;
9034;SDS011;4552;43.422;24.592;2023-01-15T19:59:45;9.07;;;5.57;;
9034;SDS011;4552;43.422;24.592;2023-01-15T20:02:17;10.90;;;6.23;;
9034;SDS011;4552;43.422;24.592;2023-01-15T20:04:45;7.67;;;5.40;;
9034;SDS011;4552;43.422;24.592;2023-01-15T20:10:08;11.33;;;5.67;;
9034;SDS011;4552;43.422;24.592;2023-01-15T20:12:54;8.30;;;5.77;;
9034;SDS011;4552;43.422;24.592;2023-01-15T20:15:39;9.43;;;6.13;;
9034;SDS011;4552;43.422;24.592;2023-01-15T20:18:09;10.20;;;5.77;;
9034;SDS011;4552;43.422;24.592;2023-01-15T20:20:42;6.23;;;4.77;;
9034;SDS011;4552;43.422;24.592;2023-01-15T20:23:19;9.17;;;6.03;;
9034;SDS011;4552;43.422;24.592;2023-01-15T20:26:01;9.33;;;5.63;;
9034;SDS011;4552;43.422;24.592;2023-01-15T20:28:45;8.13;;;5.70;;
9034;SDS011;4552;43.422;24.592;2023-01-15T20:31:34;10.57;;;5.70;;
9034;SDS011;4552;43.422;24.592;2023-01-15T20:34:28;8.33;;;5.40;;
9034;SDS011;4552;43.422;24.592;2023-01-15T20:37:08;12.00;;;5.97;;
9034;SDS011;4552;43.422;24.592;2023-01-15T21:02:35;13.23;;;5.70;;
9034;SDS011;4552;43.422;24.592;2023-01-15T21:05:04;10.17;;;5.27;;
9034;SDS011;4552;43.422;24.592;2023-01-15T21:07:35;12.03;;;6.80;;
9034;SDS011;4552;43.422;24.592;2023-01-15T21:10:06;14.83;;;7.87;;
9034;SDS011;4552;43.422;24.592;2023-01-15T21:13:00;10.80;;;7.07;;
9034;SDS011;4552;43.422;24.592;2023-01-15T21:16:06;8.83;;;4.97;;
9034;SDS011;4552;43.422;24.592;2023-01-15T21:22:11;8.10;;;5.00;;
9034;SDS011;4552;43.422;24.592;2023-01-15T21:24:38;8.40;;;5.27;;
9034;SDS011;4552;43.422;24.592;2023-01-15T21:27:05;6.30;;;4.10;;
9034;SDS011;4552;43.422;24.592;2023-01-15T21:29:32;10.37;;;6.00;;
9034;SDS011;4552;43.422;24.592;2023-01-15T21:31:59;8.13;;;4.73;;
9034;SDS011;4552;43.422;24.592;2023-01-15T21:34:26;6.67;;;4.07;;
9034;SDS011;4552;43.422;24.592;2023-01-15T21:36:54;11.90;;;6.90;;
9034;SDS011;4552;43.422;24.592;2023-01-15T21:39:25;9.67;;;5.17;;
9034;SDS011;4552;43.422;24.592;2023-01-15T21:41:53;7.50;;;4.67;;
9034;SDS011;4552;43.422;24.592;2023-01-15T21:44:49;13.60;;;6.57;;
9034;SDS011;4552;43.422;24.592;2023-01-15T21:47:16;14.63;;;7.30;;
9034;SDS011;4552;43.422;24.592;2023-01-15T21:49:44;10.43;;;5.67;;
9034;SDS011;4552;43.422;24.592;2023-01-15T21:52:15;7.63;;;5.17;;
9034;SDS011;4552;43.422;24.592;2023-01-15T21:54:52;7.77;;;4.73;;
9034;SDS011;4552;43.422;24.592;2023-01-15T21:57:22;9.00;;;4.70;;
9034;SDS011;4552;43.422;24.592;2023-01-15T21:59:49;8.83;;;5.40;;
9034;SDS011;4552;43.422;24.592;2023-01-15T22:02:18;9.07;;;5.13;;
9034;SDS011;4552;43.422;24.592;2023-01-15T22:04:47;8.70;;;5.10;;
9034;SDS011;4552;43.422;24.592;2023-01-15T22:07:14;8.70;;;5.47;;
9034;SDS011;4552;43.422;24.592;2023-01-15T22:09:42;8.13;;;5.73;;
9034;SDS011;4552;43.422;24.592;2023-01-15T22:15:23;7.17;;;5.00;;
9034;SDS011;4552;43.422;24.592;2023-01-15T22:17:51;9.43;;;6.03;;
9034;SDS011;4552;43.422;24.592;2023-01-15T22:20:19;8.63;;;5.17;;
9034;SDS011;4552;43.422;24.592;2023-01-15T22:22:47;9.17;;;4.87;;
9034;SDS011;4552;43.422;24.592;2023-01-15T22:25:14;10.83;;;5.90;;
9034;SDS011;4552;43.422;24.592;2023-01-15T22:27:45;11.00;;;5.07;;
9034;SDS011;4552;43.422;24.592;2023-01-15T22:30:14;11.10;;;5.53;;
9034;SDS011;4552;43.422;24.592;2023-01-15T22:32:42;8.73;;;5.43;;
9034;SDS011;4552;43.422;24.592;2023-01-15T22:35:09;9.50;;;5.43;;
9034;SDS011;4552;43.422;24.592;2023-01-15T22:37:37;7.77;;;5.17;;
9034;SDS011;4552;43.422;24.592;2023-01-15T22:40:07;8.70;;;4.97;;
9034;SDS011;4552;43.422;24.592;2023-01-15T22:42:53;14.87;;;7.30;;
9034;SDS011;4552;43.422;24.592;2023-01-15T22:45:21;11.17;;;6.47;;
9034;SDS011;4552;43.422;24.592;2023-01-15T22:47:50;13.07;;;7.30;;
9034;SDS011;4552;43.422;24.592;2023-01-15T22:50:20;12.00;;;6.47;;
9034;SDS011;4552;43.422;24.592;2023-01-15T22:52:48;11.57;;;5.70;;
9034;SDS011;4552;43.422;24.592;2023-01-15T22:55:15;13.47;;;7.07;;
9034;SDS011;4552;43.422;24.592;2023-01-15T22:57:42;12.73;;;7.67;;
9034;SDS011;4552;43.422;24.592;2023-01-15T23:00:13;12.63;;;7.73;;
9034;SDS011;4552;43.422;24.592;2023-01-15T23:02:41;12.87;;;6.63;;
9034;SDS011;4552;43.422;24.592;2023-01-15T23:05:29;13.47;;;6.57;;
9034;SDS011;4552;43.422;24.592;2023-01-15T23:08:00;12.30;;;7.63;;
9034;SDS011;4552;43.422;24.592;2023-01-15T23:10:27;13.33;;;7.77;;
9034;SDS011;4552;43.422;24.592;2023-01-15T23:12:56;14.30;;;7.33;;
9034;SDS011;4552;43.422;24.592;2023-01-15T23:15:25;13.60;;;7.77;;
9034;SDS011;4552;43.422;24.592;2023-01-15T23:17:52;13.37;;;6.80;;
9034;SDS011;4552;43.422;24.592;2023-01-15T23:20:19;10.83;;;6.77;;
9034;SDS011;4552;43.422;24.592;2023-01-15T23:22:53;14.77;;;7.50;;
9034;SDS011;4552;43.422;24.592;2023-01-15T23:25:23;13.43;;;6.40;;
9034;SDS011;4552;43.422;24.592;2023-01-15T23:27:53;11.70;;;6.07;;
9034;SDS011;4552;43.422;24.592;2023-01-15T23:30:21;10.77;;;6.33;;
9034;SDS011;4552;43.422;24.592;2023-01-15T23:32:49;12.07;;;6.93;;
9034;SDS011;4552;43.422;24.592;2023-01-15T23:35:16;11.07;;;6.60;;
9034;SDS011;4552;43.422;24.592;2023-01-15T23:37:44;10.50;;;6.37;;
9034;SDS011;4552;43.422;24.592;2023-01-15T23:40:11;10.13;;;6.23;;
9034;SDS011;4552;43.422;24.592;2023-01-15T23:42:39;13.83;;;6.40;;
9034;SDS011;4552;43.422;24.592;2023-01-15T23:45:24;10.53;;;5.83;;
9034;SDS011;4552;43.422;24.592;2023-01-15T23:48:10;11.23;;;6.50;;
9034;SDS011;4552;43.422;24.592;2023-01-15T23:50:40;11.10;;;6.13;;
9034;SDS011;4552;43.422;24.592;2023-01-15T23:53:07;12.17;;;6.10;;
9034;SDS011;4552;43.422;24.592;2023-01-15T23:55:34;11.63;;;5.87;;
9034;SDS011;4552;43.422;24.592;2023-01-15T23:58:04;12.10;;;6.17;;
